createdAt,value
2022-11-14T00:00:11.483Z,96416.06
2022-11-14T00:01:43.080Z,96417.00
2022-11-14T00:03:16.172Z,96411.38
2022-11-14T00:04:48.150Z,96406.09
2022-11-14T00:06:20.024Z,96409.81
2022-11-14T00:07:51.637Z,96396.13
2022-11-14T00:09:25.172Z,96402.19
2022-11-14T00:10:56.828Z,96403.44
2022-11-14T00:12:28.469Z,96404.53
2022-11-14T00:14:00.137Z,96406.56
2022-11-14T00:15:31.778Z,96404.53
2022-11-14T00:17:03.744Z,96407.81
2022-11-14T00:18:36.815Z,96407.50
2022-11-14T00:20:10.274Z,96403.75
2022-11-14T00:21:41.942Z,96411.38
2022-11-14T00:23:13.580Z,96407.50
2022-11-14T00:24:45.185Z,96408.41
2022-11-14T00:26:16.971Z,96402.66
2022-11-14T00:27:48.600Z,96401.88
2022-11-14T00:29:20.324Z,96400.47
2022-11-14T00:30:51.973Z,96402.03
2022-11-14T00:32:23.837Z,96387.56
2022-11-14T00:33:57.143Z,96391.59
2022-11-14T00:35:28.816Z,96390.38
2022-11-14T00:37:00.530Z,96378.69
2022-11-14T00:38:32.368Z,96376.34
2022-11-14T00:40:05.075Z,96375.72
2022-11-14T00:41:36.804Z,96369.31
2022-11-14T00:43:08.450Z,96371.97
2022-11-14T00:44:40.109Z,96371.34
2022-11-14T00:46:11.886Z,96371.03
2022-11-14T00:47:43.595Z,96368.69
2022-11-14T00:49:16.774Z,96374.13
2022-11-14T00:50:48.456Z,96365.72
2022-11-14T00:52:20.107Z,96366.06
2022-11-14T00:53:51.730Z,96369.47
2022-11-14T00:55:23.406Z,96375.56
2022-11-14T00:56:55.000Z,96372.28
2022-11-14T00:58:26.698Z,96375.06
2022-11-14T00:59:58.488Z,96377.41
2022-11-14T01:01:30.100Z,96381.31
2022-11-14T01:03:01.757Z,96373.38
2022-11-14T01:04:34.858Z,96382.88
2022-11-14T01:06:07.685Z,96374.91
2022-11-14T01:07:39.311Z,96371.19
2022-11-14T01:09:10.958Z,96373.81
2022-11-14T01:10:43.311Z,96378.03
2022-11-14T01:12:14.950Z,96378.94
2022-11-14T01:13:46.745Z,96384.25
2022-11-14T01:15:18.442Z,96379.25
2022-11-14T01:16:50.050Z,96382.88
2022-11-14T01:18:21.755Z,96384.41
2022-11-14T01:19:54.782Z,96387.38
2022-11-14T01:21:26.366Z,96378.94
2022-11-14T01:22:58.101Z,96382.22
2022-11-14T01:24:29.786Z,96376.63
2022-11-14T01:26:02.493Z,96375.25
2022-11-14T01:27:34.109Z,96369.94
2022-11-14T01:29:05.770Z,96363.88
2022-11-14T01:30:37.657Z,96359.81
2022-11-14T01:32:09.514Z,96351.88
2022-11-14T01:33:41.341Z,96359.16
2022-11-14T01:35:14.641Z,96351.88
2022-11-14T01:36:46.727Z,96349.22
2022-11-14T01:38:18.626Z,96340.16
2022-11-14T01:39:50.265Z,96335.97
2022-11-14T01:41:21.943Z,96330.03
2022-11-14T01:43:22.624Z,96332.38
2022-11-14T01:44:54.259Z,96336.09
2022-11-14T01:46:26.659Z,96338.63
2022-11-14T01:47:58.397Z,96349.81
2022-11-14T01:49:33.303Z,96357.75
2022-11-14T01:51:15.130Z,96365.72
2022-11-14T01:52:46.718Z,96369.94
2022-11-14T01:54:20.273Z,96368.06
2022-11-14T01:55:52.497Z,96365.88
2022-11-14T01:57:26.866Z,96367.75
2022-11-14T01:59:00.706Z,96357.16
2022-11-14T02:00:32.318Z,96363.88
2022-11-14T02:02:06.288Z,96353.56
2022-11-14T02:03:38.863Z,96344.84
2022-11-14T02:05:11.748Z,96350.44
2022-11-14T02:06:44.807Z,96339.84
2022-11-14T02:08:16.578Z,96344.06
2022-11-14T02:09:48.670Z,96341.72
2022-11-14T02:11:20.476Z,96330.66
2022-11-14T02:12:52.144Z,96343.47
2022-11-14T02:14:23.801Z,96340.31
2022-11-14T02:15:55.413Z,96337.66
2022-11-14T02:17:30.145Z,96345.16
2022-11-14T02:19:02.669Z,96340.94
2022-11-14T02:20:37.092Z,96345.16
2022-11-14T02:22:08.780Z,96349.81
2022-11-14T02:23:40.482Z,96345.00
2022-11-14T02:25:13.221Z,96347.03
2022-11-14T02:26:44.827Z,96348.13
2022-11-14T02:28:16.466Z,96345.16
2022-11-14T02:29:48.133Z,96361.50
2022-11-14T02:31:19.785Z,96351.41
2022-11-14T02:34:43.152Z,96344.84
2022-11-14T02:36:16.303Z,96345.63
2022-11-14T02:37:48.021Z,96345.47
2022-11-14T02:39:19.847Z,96345.63
2022-11-14T02:40:51.443Z,96356.84
2022-11-14T02:42:23.150Z,96346.22
2022-11-14T02:43:54.808Z,96351.06
2022-11-14T02:45:26.546Z,96352.97
2022-11-14T02:46:58.153Z,96353.56
2022-11-14T02:48:30.157Z,96351.84
2022-11-14T02:50:02.148Z,96350.44
2022-11-14T02:51:35.450Z,96348.44
2022-11-14T02:53:07.189Z,96344.69
2022-11-14T02:54:38.934Z,96342.69
2022-11-14T02:56:10.610Z,96345.78
2022-11-14T02:57:42.365Z,96342.97
2022-11-14T02:59:14.158Z,96339.84
2022-11-14T03:01:13.746Z,96345.00
2022-11-14T03:02:37.530Z,96338.16
2022-11-14T03:04:09.131Z,96336.44
2022-11-14T03:05:40.774Z,96337.97
2022-11-14T03:07:13.840Z,96343.59
2022-11-14T03:08:45.497Z,96342.50
2022-11-14T03:10:18.199Z,96342.97
2022-11-14T03:11:49.816Z,96342.19
2022-11-14T03:13:21.487Z,96340.63
2022-11-14T03:14:53.177Z,96343.59
2022-11-14T03:16:24.836Z,96335.34
2022-11-14T03:17:56.474Z,96334.69
2022-11-14T03:19:28.123Z,96337.97
2022-11-14T03:21:05.290Z,96329.41
2022-11-14T03:22:38.295Z,96337.97
2022-11-14T03:24:09.987Z,96327.50
2022-11-14T03:25:41.656Z,96331.09
2022-11-14T03:27:13.348Z,96332.69
2022-11-14T03:28:45.045Z,96331.91
2022-11-14T03:30:17.315Z,96331.59
2022-11-14T03:31:48.966Z,96338.59
2022-11-14T03:33:20.697Z,96340.31
2022-11-14T03:34:52.394Z,96337.22
2022-11-14T03:36:24.084Z,96332.22
2022-11-14T03:37:59.160Z,96338.63
2022-11-14T03:39:30.904Z,96340.94
2022-11-14T03:41:02.540Z,96333.97
2022-11-14T03:42:34.694Z,96337.84
2022-11-14T03:44:06.337Z,96341.28
2022-11-14T03:45:37.985Z,96340.19
2022-11-14T03:47:10.084Z,96347.03
2022-11-14T03:48:41.720Z,96346.56
2022-11-14T03:50:13.414Z,96339.56
2022-11-14T03:51:45.039Z,96329.91
2022-11-14T03:53:17.994Z,96339.41
2022-11-14T03:54:50.353Z,96335.97
2022-11-14T03:56:21.953Z,96337.56
2022-11-14T03:57:53.543Z,96341.28
2022-11-14T03:59:25.195Z,96339.56
2022-11-14T04:00:56.991Z,96339.09
2022-11-14T04:02:28.630Z,96332.25
2022-11-14T04:04:00.285Z,96335.38
2022-11-14T04:05:32.040Z,96338.34
2022-11-14T04:07:03.842Z,96331.00
2022-11-14T04:08:36.926Z,96329.44
2022-11-14T04:10:08.963Z,96328.16
2022-11-14T04:11:40.584Z,96328.34
2022-11-14T04:13:12.216Z,96324.59
2022-11-14T04:14:43.984Z,96336.75
2022-11-14T04:16:15.616Z,96322.28
2022-11-14T04:17:47.402Z,96331.78
2022-11-14T04:19:19.071Z,96327.84
2022-11-14T04:20:50.723Z,96323.84
2022-11-14T04:22:22.369Z,96325.41
2022-11-14T04:23:55.334Z,96319.19
2022-11-14T04:25:26.911Z,96328.19
2022-11-14T04:26:58.502Z,96320.25
2022-11-14T04:28:30.387Z,96317.75
2022-11-14T04:30:02.350Z,96320.09
2022-11-14T04:31:33.978Z,96312.78
2022-11-14T04:33:05.627Z,96307.34
2022-11-14T04:34:37.264Z,96307.78
2022-11-14T04:36:09.139Z,96303.59
2022-11-14T04:37:40.801Z,96306.25
2022-11-14T04:39:13.789Z,96299.56
2022-11-14T04:40:49.217Z,96307.03
2022-11-14T04:42:20.864Z,96302.22
2022-11-14T04:43:52.554Z,96296.44
2022-11-14T04:45:24.286Z,96297.53
2022-11-14T04:46:56.055Z,96291.13
2022-11-14T04:48:28.022Z,96290.81
2022-11-14T04:49:59.882Z,96293.91
2022-11-14T04:51:31.772Z,96291.41
2022-11-14T04:53:03.565Z,96293.28
2022-11-14T04:54:38.176Z,96292.97
2022-11-14T04:56:17.823Z,96293.00
2022-11-14T05:00:15.214Z,96279.31
2022-11-14T05:02:46.982Z,96291.44
2022-11-14T05:06:37.790Z,96291.28
2022-11-14T05:09:12.250Z,96285.84
2022-11-14T05:20:01.530Z,96279.91
2022-11-14T05:21:57.555Z,96286.28
2022-11-14T05:32:16.605Z,96272.09
2022-11-14T05:35:05.082Z,96271.00
2022-11-14T05:37:35.590Z,96273.50
2022-11-14T05:39:33.725Z,96269.72
2022-11-14T05:42:54.136Z,96281.44
2022-11-14T05:44:24.971Z,96265.25
2022-11-14T05:46:11.633Z,96267.44
2022-11-14T05:48:27.092Z,96265.56
2022-11-14T05:50:17.922Z,96262.59
2022-11-14T05:52:26.715Z,96267.66
2022-11-14T05:53:58.343Z,96265.19
2022-11-14T05:55:30.037Z,96263.03
2022-11-14T05:57:01.680Z,96272.09
2022-11-14T05:58:33.557Z,96272.72
2022-11-14T06:00:06.065Z,96275.84
2022-11-14T06:01:37.793Z,96274.75
2022-11-14T06:03:10.940Z,96271.94
2022-11-14T06:04:42.569Z,96275.06
2022-11-14T06:06:15.172Z,96277.84
2022-11-14T06:07:46.824Z,96267.38
2022-11-14T06:09:18.426Z,96270.53
2022-11-14T06:10:50.118Z,96262.09
2022-11-14T06:12:21.762Z,96253.34
2022-11-14T06:13:53.414Z,96255.69
2022-11-14T06:15:25.030Z,96253.69
2022-11-14T06:16:56.678Z,96255.28
2022-11-14T06:18:30.022Z,96238.00
2022-11-14T06:20:01.870Z,96253.16
2022-11-14T06:21:33.599Z,96263.41
2022-11-14T06:23:05.265Z,96259.03
2022-11-14T06:24:37.170Z,96265.56
2022-11-14T06:26:13.821Z,96259.25
2022-11-14T06:27:45.438Z,96260.16
2022-11-14T06:29:17.153Z,96263.19
2022-11-14T06:30:48.827Z,96263.19
2022-11-14T06:32:20.493Z,96270.03
2022-11-14T06:33:53.550Z,96281.72
2022-11-14T06:35:25.728Z,96291.34
2022-11-14T06:36:57.375Z,96290.09
2022-11-14T06:38:30.599Z,96290.69
2022-11-14T06:40:02.380Z,96285.25
2022-11-14T06:41:33.985Z,96286.03
2022-11-14T06:43:05.613Z,96287.44
2022-11-14T06:44:37.365Z,96295.34
2022-11-14T06:46:11.050Z,96292.38
2022-11-14T06:47:42.731Z,96293.00
2022-11-14T06:49:15.768Z,96298.50
2022-11-14T06:50:51.962Z,96293.50
2022-11-14T06:52:23.611Z,96301.28
2022-11-14T06:53:55.268Z,96300.94
2022-11-14T06:55:26.901Z,96297.53
2022-11-14T06:56:58.618Z,96299.38
2022-11-14T06:58:31.241Z,96312.16
2022-11-14T07:00:04.494Z,96306.56
2022-11-14T07:01:36.186Z,96307.34
2022-11-14T07:03:07.878Z,96303.59
2022-11-14T07:04:41.001Z,96300.91
2022-11-14T07:06:13.592Z,96300.59
2022-11-14T07:07:45.320Z,96315.13
2022-11-14T07:09:16.963Z,96310.75
2022-11-14T07:10:48.578Z,96315.84
2022-11-14T07:12:20.246Z,96314.25
2022-11-14T07:13:52.066Z,96321.25
2022-11-14T07:15:23.671Z,96309.53
2022-11-14T07:16:55.296Z,96322.47
2022-11-14T07:18:27.119Z,96327.00
2022-11-14T07:20:00.184Z,96326.53
2022-11-14T07:21:32.179Z,96325.28
2022-11-14T07:23:03.790Z,96318.88
2022-11-14T07:24:35.441Z,96320.31
2022-11-14T07:26:07.891Z,96324.63
2022-11-14T07:27:39.695Z,96318.25
2022-11-14T07:29:11.557Z,96324.44
2022-11-14T07:30:43.175Z,96323.09
2022-11-14T07:32:14.782Z,96323.09
2022-11-14T07:33:46.638Z,96328.97
2022-11-14T07:35:19.630Z,96326.19
2022-11-14T07:36:51.698Z,96326.19
2022-11-14T07:38:23.307Z,96334.28
2022-11-14T07:39:55.006Z,96338.81
2022-11-14T07:41:26.613Z,96336.94
2022-11-14T07:42:59.051Z,96341.47
2022-11-14T07:44:30.693Z,96335.50
2022-11-14T07:46:02.915Z,96341.28
2022-11-14T07:47:34.494Z,96340.50
2022-11-14T07:49:06.136Z,96330.53
2022-11-14T07:50:39.142Z,96332.41
2022-11-14T07:52:10.822Z,96337.25
2022-11-14T07:53:42.441Z,96331.63
2022-11-14T07:55:14.229Z,96330.66
2022-11-14T07:56:45.834Z,96333.31
2022-11-14T07:58:17.618Z,96335.31
2022-11-14T07:59:49.215Z,96345.78
2022-11-14T08:01:20.996Z,96349.09
2022-11-14T08:02:52.668Z,96350.78
2022-11-14T08:04:24.341Z,96352.06
2022-11-14T08:06:01.975Z,96357.03
2022-11-14T08:07:33.720Z,96357.81
2022-11-14T08:09:05.448Z,96356.78
2022-11-14T08:10:37.107Z,96364.88
2022-11-14T08:12:08.724Z,96363.66
2022-11-14T08:13:40.427Z,96363.34
2022-11-14T08:15:13.138Z,96365.81
2022-11-14T08:16:44.775Z,96369.25
2022-11-14T08:18:16.375Z,96361.44
2022-11-14T08:19:47.982Z,96366.75
2022-11-14T08:21:20.962Z,96355.63
2022-11-14T08:22:52.622Z,96348.78
2022-11-14T08:24:24.206Z,96354.72
2022-11-14T08:25:57.827Z,96357.19
2022-11-14T08:27:29.449Z,96358.72
2022-11-14T08:29:01.102Z,96359.97
2022-11-14T08:30:32.758Z,96355.88
2022-11-14T08:32:04.475Z,96357.44
2022-11-14T08:33:36.084Z,96357.25
2022-11-14T08:35:07.834Z,96361.31
2022-11-14T08:36:40.880Z,96363.78
2022-11-14T08:38:12.516Z,96368.94
2022-11-14T08:39:45.059Z,96375.34
2022-11-14T08:41:16.742Z,96373.47
2022-11-14T08:42:48.405Z,96374.69
2022-11-14T08:44:20.096Z,96377.53
2022-11-14T08:45:51.679Z,96375.78
2022-11-14T08:47:23.254Z,96380.78
2022-11-14T08:48:54.894Z,96372.03
2022-11-14T08:50:26.543Z,96381.69
2022-11-14T08:51:59.521Z,96382.28
2022-11-14T08:53:31.200Z,96379.31
2022-11-14T08:55:09.192Z,96382.28
2022-11-14T08:56:40.899Z,96389.91
2022-11-14T08:58:12.560Z,96391.28
2022-11-14T08:59:44.155Z,96388.75
2022-11-14T09:01:15.848Z,96391.41
2022-11-14T09:02:47.583Z,96386.41
2022-11-14T09:04:19.414Z,96387.78
2022-11-14T09:05:51.766Z,96388.28
2022-11-14T09:07:24.748Z,96387.97
2022-11-14T09:08:56.455Z,96389.84
2022-11-14T09:10:28.145Z,96394.50
2022-11-14T09:11:59.778Z,96396.03
2022-11-14T09:13:32.467Z,96394.63
2022-11-14T09:15:04.857Z,96396.50
2022-11-14T09:16:36.537Z,96398.50
2022-11-14T09:18:08.967Z,96402.72
2022-11-14T09:19:40.610Z,96406.09
2022-11-14T09:21:12.735Z,96411.84
2022-11-14T09:22:45.745Z,96422.91
2022-11-14T09:24:17.362Z,96425.53
2022-11-14T09:25:49.594Z,96419.25
2022-11-14T09:27:21.187Z,96416.78
2022-11-14T09:28:52.830Z,96414.59
2022-11-14T09:30:24.481Z,96412.09
2022-11-14T09:31:56.819Z,96416.59
2022-11-14T09:33:28.614Z,96414.06
2022-11-14T09:35:00.432Z,96415.03
2022-11-14T09:36:32.067Z,96417.69
2022-11-14T09:38:06.269Z,96416.50
2022-11-14T09:39:40.695Z,96411.38
2022-11-14T09:41:24.552Z,96410.94
2022-11-14T09:43:04.863Z,96410.47
2022-11-14T09:44:55.915Z,96400.66
2022-11-14T09:46:31.096Z,96401.44
2022-11-14T09:48:05.805Z,96406.78
2022-11-14T09:49:38.828Z,96401.66
2022-11-14T09:51:14.003Z,96401.00
2022-11-14T09:52:47.675Z,96398.06
2022-11-14T09:54:21.693Z,96401.38
2022-11-14T09:55:53.392Z,96395.94
2022-11-14T09:57:25.312Z,96390.75
2022-11-14T09:58:57.025Z,96392.75
2022-11-14T10:00:29.698Z,96395.41
2022-11-14T10:02:03.120Z,96394.56
2022-11-14T10:03:43.121Z,96395.78
2022-11-14T10:05:31.583Z,96398.91
2022-11-14T10:07:07.161Z,96394.53
2022-11-14T10:08:45.327Z,96402.66
2022-11-14T10:10:26.106Z,96394.28
2022-11-14T10:12:01.858Z,96392.28
2022-11-14T10:14:02.859Z,96396.94
2022-11-14T10:15:36.356Z,96396.59
2022-11-14T10:17:14.890Z,96392.53
2022-11-14T10:19:03.674Z,96385.00
2022-11-14T10:20:37.444Z,96385.13
2022-11-14T10:22:15.195Z,96386.16
2022-11-14T10:23:49.391Z,96380.94
2022-11-14T10:25:24.191Z,96379.72
2022-11-14T10:26:58.227Z,96382.63
2022-11-14T10:28:39.415Z,96381.84
2022-11-14T10:30:12.076Z,96379.75
2022-11-14T10:31:47.288Z,96378.19
2022-11-14T10:33:23.396Z,96379.84
2022-11-14T10:34:58.481Z,96375.97
2022-11-14T10:36:40.019Z,96389.13
2022-11-14T10:38:13.444Z,96383.81
2022-11-14T10:39:46.842Z,96377.19
2022-11-14T10:41:41.929Z,96384.72
2022-11-14T10:43:17.159Z,96385.50
2022-11-14T10:44:52.337Z,96386.19
2022-11-14T10:46:26.271Z,96389.75
2022-11-14T10:47:59.223Z,96394.41
2022-11-14T10:49:32.102Z,96386.53
2022-11-14T10:51:06.611Z,96395.94
2022-11-14T10:52:39.574Z,96391.25
2022-11-14T10:54:13.615Z,96386.09
2022-11-14T10:56:03.207Z,96384.66
2022-11-14T10:57:37.006Z,96380.19
2022-11-14T10:59:09.056Z,96387.28
2022-11-14T11:00:40.719Z,96383.72
2022-11-14T11:02:12.439Z,96378.41
2022-11-14T11:03:44.199Z,96376.84
2022-11-14T11:05:16.959Z,96383.59
2022-11-14T11:06:49.257Z,96378.63
2022-11-14T11:08:44.082Z,96383.16
2022-11-14T11:10:39.412Z,96379.28
2022-11-14T11:12:16.123Z,96375.97
2022-11-14T11:13:55.833Z,96376.41
2022-11-14T11:15:30.389Z,96371.53
2022-11-14T11:17:08.567Z,96371.97
2022-11-14T11:18:40.287Z,96376.06
2022-11-14T11:20:26.557Z,96374.63
2022-11-14T11:21:58.196Z,96375.75
2022-11-14T11:23:29.888Z,96381.50
2022-11-14T11:25:01.645Z,96383.38
2022-11-14T11:26:33.328Z,96381.06
2022-11-14T11:28:07.418Z,96384.38
2022-11-14T11:29:40.568Z,96377.84
2022-11-14T11:31:12.282Z,96384.72
2022-11-14T11:32:43.947Z,96376.41
2022-11-14T11:34:15.650Z,96377.63
2022-11-14T11:35:48.389Z,96371.97
2022-11-14T11:37:21.691Z,96370.44
2022-11-14T11:38:53.333Z,96374.31
2022-11-14T11:40:25.627Z,96364.13
2022-11-14T11:42:13.500Z,96366.13
2022-11-14T11:43:45.963Z,96360.91
2022-11-14T11:45:19.169Z,96373.25
2022-11-14T11:46:52.575Z,96370.47
2022-11-14T11:48:24.256Z,96355.19
2022-11-14T11:49:55.896Z,96352.75
2022-11-14T11:51:27.601Z,96364.75
2022-11-14T11:53:04.025Z,96358.31
2022-11-14T11:54:43.193Z,96367.19
2022-11-14T11:56:16.072Z,96359.19
2022-11-14T11:57:48.818Z,96358.63
2022-11-14T11:59:25.934Z,96355.09
2022-11-14T12:00:58.951Z,96348.34
2022-11-14T12:02:30.749Z,96343.03
2022-11-14T12:04:03.684Z,96358.75
2022-11-14T12:05:41.711Z,96352.31
2022-11-14T12:07:14.903Z,96365.63
2022-11-14T12:08:53.381Z,96356.75
2022-11-14T12:10:27.814Z,96363.44
2022-11-14T12:12:01.646Z,96359.66
2022-11-14T12:14:09.972Z,96350.22
2022-11-14T12:15:45.905Z,96350.34
2022-11-14T12:17:39.441Z,96345.44
2022-11-14T12:19:24.222Z,96350.88
2022-11-14T12:21:09.159Z,96356.97
2022-11-14T12:23:00.363Z,96352.44
2022-11-14T12:24:58.493Z,96361.63
2022-11-14T12:26:44.705Z,96350.94
2022-11-14T12:28:24.410Z,96348.72
2022-11-14T12:30:04.563Z,96343.38
2022-11-14T12:31:36.263Z,96335.88
2022-11-14T12:33:10.422Z,96336.31
2022-11-14T12:34:43.926Z,96340.97
2022-11-14T12:36:15.521Z,96346.81
2022-11-14T12:37:52.667Z,96343.91
2022-11-14T12:39:27.970Z,96342.91
2022-11-14T12:40:59.745Z,96333.00
2022-11-14T12:42:31.424Z,96331.91
2022-11-14T12:44:20.153Z,96331.91
2022-11-14T12:45:59.062Z,96338.59
2022-11-14T12:47:30.679Z,96336.97
2022-11-14T12:49:03.693Z,96334.28
2022-11-14T12:50:41.554Z,96329.03
2022-11-14T12:52:48.533Z,96329.22
2022-11-14T12:54:42.182Z,96341.78
2022-11-14T12:56:37.256Z,96339.63
2022-11-14T12:58:16.646Z,96332.47
2022-11-14T12:59:50.197Z,96335.81
2022-11-14T13:01:32.653Z,96336.69
2022-11-14T13:03:29.842Z,96339.44
2022-11-14T13:05:16.046Z,96335.13
2022-11-14T13:06:54.144Z,96339.41
2022-11-14T13:09:09.040Z,96335.88
2022-11-14T13:10:40.847Z,96339.19
2022-11-14T13:12:50.616Z,96340.50
2022-11-14T13:14:41.134Z,96339.06
2022-11-14T13:16:43.164Z,96339.47
2022-11-14T13:18:39.141Z,96330.16
2022-11-14T13:20:54.504Z,96336.59
2022-11-14T13:22:41.075Z,96342.69
2022-11-14T13:24:13.589Z,96337.13
2022-11-14T13:25:45.333Z,96329.56
2022-11-14T13:27:39.489Z,96327.22
2022-11-14T13:29:57.626Z,96334.38
2022-11-14T13:31:43.294Z,96338.91
2022-11-14T13:33:40.043Z,96330.91
2022-11-14T13:35:13.645Z,96331.59
2022-11-14T13:36:49.714Z,96333.84
2022-11-14T13:38:44.355Z,96329.59
2022-11-14T13:40:17.765Z,96328.50
2022-11-14T13:42:06.125Z,96332.47
2022-11-14T13:43:46.219Z,96329.13
2022-11-14T13:45:39.949Z,96325.34
2022-11-14T13:47:18.683Z,96321.97
2022-11-14T13:49:02.664Z,96324.41
2022-11-14T13:50:36.739Z,96321.31
2022-11-14T13:52:11.570Z,96314.00
2022-11-14T13:53:43.174Z,96324.31
2022-11-14T13:55:19.968Z,96324.75
2022-11-14T13:56:55.702Z,96327.66
2022-11-14T13:58:34.765Z,96321.22
2022-11-14T14:00:18.385Z,96320.69
2022-11-14T14:02:03.385Z,96323.88
2022-11-14T14:03:40.538Z,96334.47
2022-11-14T14:05:19.320Z,96329.06
2022-11-14T14:06:57.323Z,96324.31
2022-11-14T14:08:38.388Z,96331.13
2022-11-14T14:10:17.878Z,96328.63
2022-11-14T14:11:59.188Z,96326.66
2022-11-14T14:13:43.406Z,96331.19
2022-11-14T14:15:20.969Z,96323.19
2022-11-14T14:16:53.729Z,96326.66
2022-11-14T14:18:28.681Z,96331.66
2022-11-14T14:20:06.366Z,96324.22
2022-11-14T14:21:41.589Z,96325.94
2022-11-14T14:23:18.611Z,96330.50
2022-11-14T14:24:54.903Z,96323.19
2022-11-14T14:26:28.664Z,96323.53
2022-11-14T14:28:04.960Z,96318.19
2022-11-14T14:29:39.373Z,96331.00
2022-11-14T14:31:13.047Z,96332.81
2022-11-14T14:32:44.679Z,96335.47
2022-11-14T14:34:23.718Z,96335.31
2022-11-14T14:35:55.373Z,96336.34
2022-11-14T14:37:27.692Z,96331.00
2022-11-14T14:39:16.907Z,96333.69
2022-11-14T14:40:49.983Z,96335.13
2022-11-14T14:42:21.708Z,96339.81
2022-11-14T14:43:56.245Z,96337.28
2022-11-14T14:45:29.499Z,96336.25
2022-11-14T14:47:14.436Z,96338.16
2022-11-14T14:48:46.121Z,96335.97
2022-11-14T14:50:19.210Z,96351.84
2022-11-14T14:51:54.519Z,96346.97
2022-11-14T14:53:30.892Z,96338.19
2022-11-14T14:55:03.073Z,96341.38
2022-11-14T14:56:36.196Z,96339.66
2022-11-14T14:58:22.075Z,96345.75
2022-11-14T15:00:02.249Z,96339.56
2022-11-14T15:01:34.351Z,96354.41
2022-11-14T15:03:05.978Z,96344.59
2022-11-14T15:04:37.593Z,96337.13
2022-11-14T15:06:32.107Z,96342.38
2022-11-14T15:08:04.168Z,96348.13
2022-11-14T15:09:35.860Z,96344.75
2022-11-14T15:11:07.473Z,96350.22
2022-11-14T15:12:40.517Z,96346.44
2022-11-14T15:14:13.175Z,96345.75
2022-11-14T15:15:44.902Z,96344.28
2022-11-14T15:17:16.596Z,96339.91
2022-11-14T15:18:48.302Z,96335.69
2022-11-14T15:20:23.571Z,96352.16
2022-11-14T15:22:02.806Z,96344.63
2022-11-14T15:23:34.399Z,96344.28
2022-11-14T15:25:16.331Z,96343.28
2022-11-14T15:26:49.781Z,96335.25
2022-11-14T15:28:22.827Z,96345.75
2022-11-14T15:29:56.330Z,96344.16
2022-11-14T15:31:28.031Z,96341.19
2022-11-14T15:33:01.059Z,96336.41
2022-11-14T15:34:33.557Z,96345.59
2022-11-14T15:36:06.530Z,96341.72
2022-11-14T15:37:38.138Z,96346.06
2022-11-14T15:39:22.833Z,96343.88
2022-11-14T15:41:17.858Z,96343.66
2022-11-14T15:42:49.487Z,96341.69
2022-11-14T15:44:32.064Z,96338.34
2022-11-14T15:46:03.761Z,96338.38
2022-11-14T15:47:37.192Z,96349.22
2022-11-14T15:49:09.809Z,96340.66
2022-11-14T15:50:41.426Z,96337.13
2022-11-14T15:52:18.879Z,96339.47
2022-11-14T15:53:52.004Z,96337.25
2022-11-14T15:55:23.873Z,96337.03
2022-11-14T15:56:56.779Z,96330.59
2022-11-14T15:58:38.767Z,96336.94
2022-11-14T16:00:14.280Z,96338.81
2022-11-14T16:01:47.120Z,96340.56
2022-11-14T16:03:20.117Z,96341.00
2022-11-14T16:04:52.045Z,96342.34
2022-11-14T16:06:23.668Z,96339.44
2022-11-14T16:07:55.369Z,96341.78
2022-11-14T16:09:26.974Z,96340.81
2022-11-14T16:10:58.681Z,96341.13
2022-11-14T16:12:30.297Z,96342.13
2022-11-14T16:14:01.917Z,96341.91
2022-11-14T16:15:34.960Z,96344.09
2022-11-14T16:17:08.981Z,96345.88
2022-11-14T16:18:40.617Z,96347.56
2022-11-14T16:20:16.537Z,96343.44
2022-11-14T16:21:48.312Z,96335.47
2022-11-14T16:23:19.997Z,96341.78
2022-11-14T16:24:51.964Z,96336.13
2022-11-14T16:26:25.903Z,96340.34
2022-11-14T16:27:58.185Z,96345.69
2022-11-14T16:29:29.874Z,96339.47
2022-11-14T16:31:03.025Z,96337.69
2022-11-14T16:32:34.616Z,96332.38
2022-11-14T16:34:06.312Z,96334.81
2022-11-14T16:35:38.338Z,96342.09
2022-11-14T16:37:11.911Z,96331.69
2022-11-14T16:38:44.419Z,96329.50
2022-11-14T16:40:22.985Z,96329.94
2022-11-14T16:41:59.352Z,96329.16
2022-11-14T16:43:32.023Z,96332.38
2022-11-14T16:45:04.458Z,96336.34
2022-11-14T16:46:38.217Z,96333.03
2022-11-14T16:48:09.851Z,96337.91
2022-11-14T16:49:41.483Z,96328.81
2022-11-14T16:51:40.963Z,96337.31
2022-11-14T16:53:04.733Z,96336.97
2022-11-14T16:54:36.412Z,96339.47
2022-11-14T16:56:10.717Z,96340.28
2022-11-14T16:57:42.403Z,96339.63
2022-11-14T16:59:14.081Z,96342.63
2022-11-14T17:00:45.697Z,96340.00
2022-11-14T17:02:18.952Z,96346.78
2022-11-14T17:03:50.734Z,96341.72
2022-11-14T17:05:22.347Z,96342.50
2022-11-14T17:06:53.947Z,96346.06
2022-11-14T17:08:25.687Z,96344.28
2022-11-14T17:09:57.363Z,96338.66
2022-11-14T17:11:29.243Z,96335.66
2022-11-14T17:13:00.890Z,96343.19
2022-11-14T17:14:32.556Z,96344.50
2022-11-14T17:16:04.532Z,96342.41
2022-11-14T17:17:37.530Z,96343.28
2022-11-14T17:19:09.229Z,96342.75
2022-11-14T17:20:40.831Z,96333.88
2022-11-14T17:22:12.984Z,96334.88
2022-11-14T17:23:44.717Z,96338.97
2022-11-14T17:25:16.380Z,96334.53
2022-11-14T17:26:48.361Z,96338.53
2022-11-14T17:28:20.071Z,96335.63
2022-11-14T17:29:51.917Z,96335.50
2022-11-14T17:31:23.598Z,96333.91
2022-11-14T17:32:56.799Z,96336.47
2022-11-14T17:34:28.432Z,96339.06
2022-11-14T17:36:03.296Z,96328.66
2022-11-14T17:37:34.902Z,96331.31
2022-11-14T17:39:06.567Z,96333.00
2022-11-14T17:40:38.158Z,96328.00
2022-11-14T17:42:09.758Z,96329.00
2022-11-14T17:43:41.711Z,96328.13
2022-11-14T17:45:13.629Z,96332.00
2022-11-14T17:46:48.776Z,96329.72
2022-11-14T17:48:24.252Z,96326.38
2022-11-14T17:49:55.924Z,96326.81
2022-11-14T17:51:27.596Z,96333.59
2022-11-14T17:52:59.253Z,96330.84
2022-11-14T17:54:30.902Z,96334.09
2022-11-14T17:56:02.738Z,96338.91
2022-11-14T17:57:39.764Z,96341.69
2022-11-14T17:59:11.441Z,96341.34
2022-11-14T18:00:43.140Z,96337.69
2022-11-14T18:02:14.944Z,96334.69
2022-11-14T18:03:47.989Z,96331.94
2022-11-14T18:05:19.654Z,96337.72
2022-11-14T18:06:51.335Z,96327.81
2022-11-14T18:08:23.034Z,96329.09
2022-11-14T18:09:54.691Z,96333.56
2022-11-14T18:11:26.379Z,96335.34
2022-11-14T18:12:58.047Z,96338.59
2022-11-14T18:14:29.691Z,96329.81
2022-11-14T18:16:02.105Z,96334.91
2022-11-14T18:17:36.603Z,96328.03
2022-11-14T18:19:12.129Z,96319.94
2022-11-14T18:20:43.735Z,96325.28
2022-11-14T18:22:15.344Z,96328.84
2022-11-14T18:23:50.199Z,96328.34
2022-11-14T18:25:21.836Z,96326.31
2022-11-14T18:26:53.489Z,96323.53
2022-11-14T18:28:25.140Z,96328.81
2022-11-14T18:30:08.072Z,96328.22
2022-11-14T18:31:48.474Z,96322.28
2022-11-14T18:33:20.125Z,96326.69
2022-11-14T18:34:53.210Z,96321.41
2022-11-14T18:36:24.878Z,96322.00
2022-11-14T18:37:57.512Z,96327.31
2022-11-14T18:39:30.644Z,96324.91
2022-11-14T18:41:03.528Z,96323.13
2022-11-14T18:42:35.190Z,96326.56
2022-11-14T18:44:06.892Z,96322.16
2022-11-14T18:45:38.626Z,96316.09
2022-11-14T18:47:10.240Z,96318.84
2022-11-14T18:48:42.626Z,96314.56
2022-11-14T18:50:15.892Z,96317.63
2022-11-14T18:51:47.581Z,96314.69
2022-11-14T18:53:19.219Z,96315.66
2022-11-14T18:54:50.863Z,96317.22
2022-11-14T18:56:22.812Z,96315.16
2022-11-14T18:57:54.815Z,96313.47
2022-11-14T18:59:26.640Z,96308.88
2022-11-14T19:00:58.384Z,96313.72